Time;durP1;ratioP1;P1;durP2;ratioP2;P2;SDS_P1;SDS_P2;PMS_P1;PMS_P2;Temp;Humidity;BMP_temperature;BMP_pressure;BME280_temperature;BME280_humidity;BME280_pressure;Samples;Min_cycle;Max_cycle;Signal;HPM_P1;HPM_P2
2022/06/17 00:01:56;;;;;;;6.40;4.10;;;;;;;19.67;98.22;99718.16;5111012;28;20281;-63
2022/06/17 00:04:23;;;;;;;4.85;4.00;;;;;;;19.67;98.92;99719.00;5110789;28;20202;-56
2022/06/17 00:06:52;;;;;;;4.82;4.20;;;;;;;19.74;98.65;99722.97;5110906;28;20212;-57
2022/06/17 00:09:22;;;;;;;4.60;3.92;;;;;;;19.77;98.63;99714.00;5110797;28;20205;-57
2022/06/17 00:11:48;;;;;;;10.18;3.88;;;;;;;19.81;99.24;99716.34;5110818;28;20200;-58
2022/06/17 00:14:18;;;;;;;4.70;4.03;;;;;;;19.67;100.00;99716.38;5110951;28;20201;-62
2022/06/17 00:16:47;;;;;;;7.88;4.93;;;;;;;19.62;100.00;99713.19;5108495;28;20218;-62
2022/06/17 00:19:15;;;;;;;6.53;4.25;;;;;;;19.53;100.00;99706.69;5110917;28;20226;-62
2022/06/17 00:21:45;;;;;;;4.32;4.10;;;;;;;19.45;100.00;99701.03;5110506;28;20205;-62
2022/06/17 00:24:19;;;;;;;5.07;4.50;;;;;;;19.38;100.00;99704.16;5110939;28;20286;-62
2022/06/17 00:26:46;;;;;;;5.47;4.68;;;;;;;19.37;100.00;99707.72;5110626;28;20194;-63
2022/06/17 00:29:16;;;;;;;6.20;4.80;;;;;;;19.28;100.00;99697.78;5110476;28;20289;-63
2022/06/17 00:31:43;;;;;;;5.18;4.88;;;;;;;19.30;100.00;99698.53;5110630;28;20301;-57
2022/06/17 00:34:12;;;;;;;6.05;5.10;;;;;;;19.28;100.00;99698.63;5110778;28;20198;-56
2022/06/17 00:36:44;;;;;;;6.63;5.13;;;;;;;19.18;100.00;99689.59;5110647;28;20194;-57
2022/06/17 00:39:14;;;;;;;4.90;4.60;;;;;;;19.12;100.00;99698.72;5110698;28;20248;-57
2022/06/17 00:41:44;;;;;;;7.45;4.63;;;;;;;19.11;100.00;99698.78;5110259;28;20209;-56
2022/06/17 00:44:29;;;;;;;5.13;4.82;;;;;;;19.09;100.00;99695.41;5110408;28;20204;-57
2022/06/17 00:47:02;;;;;;;5.13;4.57;;;;;;;19.11;100.00;99694.38;5110524;28;20664;-58
2022/06/17 00:49:43;;;;;;;5.55;5.05;;;;;;;19.13;100.00;99679.34;5110452;28;20197;-58
2022/06/17 00:52:18;;;;;;;4.65;4.25;;;;;;;19.20;100.00;99695.59;5110640;28;20191;-63
2022/06/17 00:54:52;;;;;;;5.85;5.28;;;;;;;19.21;100.00;99689.41;5110278;28;20200;-58
2022/06/17 00:57:24;;;;;;;5.20;4.60;;;;;;;19.14;100.00;99696.84;5110687;28;20201;-57
2022/06/17 01:00:02;;;;;;;4.40;4.10;;;;;;;19.19;100.00;99696.53;5110375;28;20225;-57
2022/06/17 01:02:33;;;;;;;8.55;4.93;;;;;;;19.27;100.00;99688.19;5109992;28;20290;-57
2022/06/17 01:05:03;;;;;;;5.47;4.72;;;;;;;19.26;100.00;99687.34;5110256;28;20194;-57
2022/06/17 01:07:36;;;;;;;4.97;4.55;;;;;;;19.33;100.00;99686.00;5114350;28;20271;-56
2022/06/17 01:10:09;;;;;;;5.35;4.85;;;;;;;19.34;100.00;99685.06;5114406;28;20198;-56
2022/06/17 01:12:39;;;;;;;7.43;4.97;;;;;;;19.32;100.00;99686.09;5114164;28;20644;-61
2022/06/17 01:15:08;;;;;;;11.55;4.80;;;;;;;19.24;100.00;99689.22;5114264;28;20264;-61
2022/06/17 01:17:39;;;;;;;5.65;5.15;;;;;;;19.26;100.00;99686.50;5114350;28;20635;-60
2022/06/17 01:20:10;;;;;;;6.72;5.15;;;;;;;19.20;100.00;99677.19;5114132;28;20241;-61
2022/06/17 01:22:42;;;;;;;5.38;4.97;;;;;;;19.17;100.00;99666.88;5113943;28;20205;-57
2022/06/17 01:25:12;;;;;;;5.25;4.88;;;;;;;19.11;100.00;99665.44;5113817;28;20191;-56
2022/06/17 01:27:42;;;;;;;5.07;4.78;;;;;;;19.11;100.00;99672.47;5114183;28;20194;-61
2022/06/17 01:30:12;;;;;;;5.20;4.70;;;;;;;19.19;100.00;99672.84;5114070;28;20197;-61
2022/06/17 01:32:46;;;;;;;4.88;4.53;;;;;;;19.23;100.00;99674.38;5113862;28;20191;-61
2022/06/17 01:35:14;;;;;;;8.85;5.25;;;;;;;19.27;100.00;99672.41;5113715;28;20217;-62
2022/06/17 01:37:42;;;;;;;5.22;4.72;;;;;;;19.23;100.00;99669.09;5113686;28;20202;-62
2022/06/17 01:40:10;;;;;;;5.97;5.47;;;;;;;19.19;100.00;99664.97;5113467;28;20230;-61
2022/06/17 01:42:39;;;;;;;5.82;5.43;;;;;;;19.20;100.00;99667.50;5113922;28;20191;-61
2022/06/17 01:45:08;;;;;;;5.75;5.38;;;;;;;19.09;100.00;99661.19;5113551;28;20205;-61
2022/06/17 01:47:37;;;;;;;5.53;5.10;;;;;;;19.18;100.00;99656.25;5113619;28;20582;-62
2022/06/17 01:50:09;;;;;;;5.93;5.10;;;;;;;19.28;100.00;99655.66;5113617;28;20653;-61
2022/06/17 01:52:40;;;;;;;5.63;5.00;;;;;;;19.27;100.00;99662.72;5113572;27;20205;-61
2022/06/17 01:55:12;;;;;;;8.65;4.95;;;;;;;19.23;100.00;99655.94;5113341;28;20230;-63
2022/06/17 01:57:44;;;;;;;8.82;5.20;;;;;;;19.29;100.00;99665.25;5113463;28;20676;-62
2022/06/17 02:00:16;;;;;;;5.38;4.97;;;;;;;19.26;100.00;99661.03;5113118;28;20222;-62
2022/06/17 02:02:46;;;;;;;7.65;5.07;;;;;;;19.22;100.00;99657.72;5113022;28;20289;-62
2022/06/17 02:05:13;;;;;;;5.15;4.65;;;;;;;19.27;100.00;99654.81;5113292;28;20743;-62
2022/06/17 02:07:44;;;;;;;5.38;4.93;;;;;;;19.20;100.00;99656.13;5113225;28;20384;-62
2022/06/17 02:10:12;;;;;;;6.15;5.03;;;;;;;19.22;100.00;99659.50;5113113;28;20632;-62
2022/06/17 02:12:40;;;;;;;4.80;4.40;;;;;;;19.27;100.00;99657.44;5112831;28;20228;-62
2022/06/17 02:15:09;;;;;;;5.38;4.90;;;;;;;19.25;100.00;99659.34;5112884;28;20195;-62
2022/06/17 02:17:41;;;;;;;5.47;4.15;;;;;;;19.33;100.00;99667.59;5112830;28;20321;-62
2022/06/17 02:20:10;;;;;;;5.28;4.40;;;;;;;19.32;100.00;99665.88;5112997;28;20226;-62
2022/06/17 02:22:37;;;;;;;4.78;4.47;;;;;;;19.31;100.00;99665.97;5112911;28;20198;-57
2022/06/17 02:25:09;;;;;;;5.13;4.57;;;;;;;19.29;100.00;99676.63;5112792;28;20664;-57
2022/06/17 02:27:39;;;;;;;5.45;5.00;;;;;;;19.27;100.00;99673.25;5112627;28;20561;-57
2022/06/17 02:30:09;;;;;;;5.43;4.93;;;;;;;19.32;100.00;99676.41;5112564;28;20203;-57
2022/06/17 02:32:37;;;;;;;5.25;4.63;;;;;;;19.18;100.00;99660.66;5112450;28;20190;-59
2022/06/17 02:35:23;;;;;;;5.03;4.50;;;;;;;19.20;100.00;99667.50;5112745;28;20281;-57
2022/06/17 02:37:49;;;;;;;5.20;4.80;;;;;;;19.20;100.00;99671.91;5112477;28;20289;-56
2022/06/17 02:40:26;;;;;;;5.20;4.38;;;;;;;19.23;100.00;99669.94;5111778;28;20210;-57
2022/06/17 02:42:55;;;;;;;5.03;4.57;;;;;;;19.18;100.00;99668.56;5112324;28;20247;-62
2022/06/17 02:45:25;;;;;;;5.45;4.68;;;;;;;19.12;100.00;99671.53;5111528;28;20205;-63
2022/06/17 02:47:52;;;;;;;5.72;5.20;;;;;;;19.12;100.00;99671.53;5110887;28;20201;-62
2022/06/17 02:50:24;;;;;;;5.72;5.28;;;;;;;19.16;100.00;99668.66;5110799;28;20708;-62
2022/06/17 02:52:52;;;;;;;5.60;5.10;;;;;;;19.07;100.00;99668.38;5109545;28;20208;-60
2022/06/17 02:55:26;;;;;;;6.50;5.47;;;;;;;19.11;100.00;99669.84;5109438;28;20310;-62
2022/06/17 02:58:03;;;;;;;5.43;4.93;;;;;;;19.05;100.00;99662.34;5109633;28;20205;-62
2022/06/17 03:00:30;;;;;;;5.28;4.93;;;;;;;18.93;100.00;99663.09;5109791;28;20284;-61
2022/06/17 03:03:01;;;;;;;8.98;5.80;;;;;;;19.02;100.00;99673.91;5109087;28;20202;-61
2022/06/17 03:05:31;;;;;;;7.72;6.00;;;;;;;18.94;100.00;99675.31;5109515;28;20213;-61
2022/06/17 03:08:00;;;;;;;5.70;5.28;;;;;;;19.02;100.00;99678.31;5109744;28;20186;-61
2022/06/17 03:10:32;;;;;;;6.10;5.60;;;;;;;18.94;100.00;99677.94;5109128;28;20198;-61
2022/06/17 03:13:05;;;;;;;6.25;5.68;;;;;;;19.07;100.00;99677.09;5109711;28;20586;-61
2022/06/17 03:15:33;;;;;;;6.30;5.70;;;;;;;19.07;100.00;99677.09;5109204;28;20194;-57
2022/06/17 03:18:00;;;;;;;9.50;5.88;;;;;;;19.07;100.00;99676.25;5108687;28;20268;-56
2022/06/17 03:20:30;;;;;;;7.15;5.63;;;;;;;19.17;100.00;99687.91;5110234;28;20218;-60
2022/06/17 03:23:01;;;;;;;6.03;5.53;;;;;;;19.13;100.00;99681.13;5110035;28;20198;-60
2022/06/17 03:25:32;;;;;;;8.68;5.53;;;;;;;19.19;100.00;99693.91;5110299;28;20233;-60
2022/06/17 03:28:04;;;;;;;8.68;6.43;;;;;;;19.27;100.00;99696.94;5108982;28;20187;-62
2022/06/17 03:30:34;;;;;;;10.48;6.22;;;;;;;19.28;100.00;99693.34;5110463;28;20273;-63
2022/06/17 03:33:09;;;;;;;8.23;6.00;;;;;;;19.33;100.00;99696.53;5107728;28;20299;-63
2022/06/17 03:35:38;;;;;;;9.43;6.20;;;;;;;19.37;100.00;99679.63;5109861;28;20321;-65
2022/06/17 03:38:11;;;;;;;8.13;6.40;;;;;;;19.69;100.00;99708.38;5109801;28;20660;-63
2022/06/17 03:40:43;;;;;;;5.80;5.35;;;;;;;19.81;100.00;99705.81;5109671;28;20305;-59
2022/06/17 03:43:17;;;;;;;7.72;6.45;;;;;;;19.94;100.00;99700.63;5107552;28;20194;-58
2022/06/17 03:45:49;;;;;;;8.45;5.82;;;;;;;20.11;100.00;99705.63;5110564;28;20682;-58
2022/06/17 03:48:27;;;;;;;7.32;5.90;;;;;;;20.39;99.04;99706.50;5111045;28;20191;-59
2022/06/17 03:50:53;;;;;;;11.73;5.97;;;;;;;20.63;97.56;99708.34;5109227;28;20201;-59
2022/06/17 03:53:25;;;;;;;7.57;6.93;;;;;;;21.24;93.78;99713.91;5103654;28;20577;-58
2022/06/17 03:55:54;;;;;;;8.88;6.70;;;;;;;22.48;86.61;99711.09;5108577;28;20222;-57
2022/06/17 03:58:23;;;;;;;6.85;5.40;;;;;;;23.65;79.00;99712.66;5105223;28;20197;-59
2022/06/17 04:00:53;;;;;;;6.13;5.13;;;;;;;24.61;73.53;99717.09;5107081;28;20252;-59
2022/06/17 04:03:24;;;;;;;6.35;5.85;;;;;;;25.57;69.00;99715.97;5129926;27;20197;-59
2022/06/17 04:06:01;;;;;;;5.57;5.18;;;;;;;26.31;64.91;99729.78;5121974;27;20199;-59
2022/06/17 04:08:28;;;;;;;5.18;4.88;;;;;;;26.96;61.93;99720.25;5109711;28;20204;-59
2022/06/17 04:10:55;;;;;;;5.93;5.38;;;;;;;28.42;57.60;99724.75;5119181;27;20756;-58
2022/06/17 04:13:30;;;;;;;6.20;5.60;;;;;;;29.15;53.82;99728.00;5116180;27;20205;-59
2022/06/17 04:16:03;;;;;;;5.80;5.28;;;;;;;29.47;52.84;99724.72;5107180;28;20644;-59
2022/06/17 04:18:34;;;;;;;6.18;5.72;;;;;;;29.64;51.86;99729.16;5107756;28;20194;-59
2022/06/17 04:21:03;;;;;;;7.00;4.72;;;;;;;29.98;50.67;99731.81;5108013;28;20206;-58
2022/06/17 04:23:32;;;;;;;5.38;4.97;;;;;;;30.02;50.90;99733.16;5108228;28;20194;-60
2022/06/17 04:26:02;;;;;;;6.43;4.68;;;;;;;30.62;48.93;99733.78;5106714;28;20197;-56
2022/06/17 04:28:34;;;;;;;5.13;4.50;;;;;;;30.94;47.92;99737.44;5109166;28;20201;-59
2022/06/17 04:31:06;;;;;;;5.85;5.25;;;;;;;30.94;47.57;99735.59;5107416;28;20682;-58
2022/06/17 04:33:39;;;;;;;5.22;4.75;;;;;;;31.78;45.59;99738.78;5109332;28;20202;-58
2022/06/17 04:36:16;;;;;;;6.65;4.75;;;;;;;32.10;43.22;99743.97;5110391;28;20194;-60
2022/06/17 04:38:54;;;;;;;8.27;5.40;;;;;;;33.69;40.91;99745.66;5110527;28;20239;-58
2022/06/17 04:41:25;;;;;;;6.65;4.47;;;;;;;34.52;38.26;99745.22;5112681;28;20222;-59
2022/06/17 04:43:56;;;;;;;4.65;4.20;;;;;;;34.94;37.40;99733.56;5114965;28;20190;-59
2022/06/17 04:46:29;;;;;;;7.28;4.80;;;;;;;35.88;36.43;99747.47;5113612;28;20282;-59
2022/06/17 04:48:58;;;;;;;7.68;4.47;;;;;;;36.98;33.46;99738.13;5114924;28;20289;-59
2022/06/17 04:51:26;;;;;;;5.90;4.40;;;;;;;37.23;32.81;99733.75;5114460;28;20251;-60
2022/06/17 04:53:54;;;;;;;6.18;5.03;;;;;;;36.53;33.39;99740.59;5114416;28;20710;-59
2022/06/17 04:56:27;;;;;;;7.82;4.38;;;;;;;35.25;35.09;99738.59;5114323;28;20230;-61
2022/06/17 04:58:56;;;;;;;4.72;4.43;;;;;;;35.82;34.03;99745.56;5114463;28;20205;-60
2022/06/17 05:01:24;;;;;;;5.30;4.82;;;;;;;35.58;34.51;99738.78;5113711;28;20244;-59
2022/06/17 05:03:53;;;;;;;4.80;3.92;;;;;;;35.95;33.59;99740.22;5114262;28;20198;-59
2022/06/17 05:06:20;;;;;;;4.47;4.18;;;;;;;36.61;33.05;99743.09;5114104;28;20194;-60
2022/06/17 05:08:53;;;;;;;4.72;3.78;;;;;;;37.73;31.47;99742.16;5114333;28;20220;-61
2022/06/17 05:11:27;;;;;;;5.03;4.53;;;;;;;36.71;32.29;99746.25;5114288;28;20190;-61
2022/06/17 05:14:01;;;;;;;4.60;4.30;;;;;;;35.60;33.68;99743.97;5114102;28;20201;-60
2022/06/17 05:16:28;;;;;;;4.53;4.13;;;;;;;35.75;33.52;99743.88;5114145;28;20236;-61
2022/06/17 05:18:55;;;;;;;4.32;4.03;;;;;;;35.23;33.50;99746.00;5114127;28;20194;-60
2022/06/17 05:21:25;;;;;;;4.07;3.78;;;;;;;34.75;34.94;99745.03;5113891;28;20243;-59
2022/06/17 05:23:54;;;;;;;4.35;4.00;;;;;;;34.72;35.04;99744.56;5113920;28;20194;-59
2022/06/17 05:26:21;;;;;;;4.32;3.65;;;;;;;34.92;34.59;99750.97;5114078;28;20583;-60
2022/06/17 05:28:48;;;;;;;4.38;3.97;;;;;;;34.59;35.19;99750.66;5113752;28;20194;-60
2022/06/17 05:31:19;;;;;;;6.32;4.20;;;;;;;33.61;36.22;99731.47;5113480;28;20191;-60
2022/06/17 05:33:47;;;;;;;5.05;4.40;;;;;;;33.94;36.64;99745.38;5113795;28;20269;-60
2022/06/17 05:36:14;;;;;;;4.20;3.80;;;;;;;34.82;35.35;99739.69;5113629;27;20290;-60
2022/06/17 05:38:41;;;;;;;7.78;3.97;;;;;;;35.85;33.34;99731.66;5113702;28;20668;-61
2022/06/17 05:41:14;;;;;;;5.53;4.25;;;;;;;35.04;34.55;99740.47;5112952;28;20214;-59
2022/06/17 05:43:41;;;;;;;4.53;3.80;;;;;;;35.43;34.59;99740.78;5112358;28;20201;-59
2022/06/17 05:46:08;;;;;;;4.22;4.00;;;;;;;35.29;34.99;99737.16;5111979;27;20205;-59
2022/06/17 05:48:36;;;;;;;4.45;3.80;;;;;;;35.77;34.27;99739.13;5112642;28;20220;-60
2022/06/17 05:51:04;;;;;;;4.75;4.20;;;;;;;35.08;35.57;99728.28;5112943;28;20187;-61
2022/06/17 05:53:30;;;;;;;4.75;4.28;;;;;;;35.30;35.25;99735.31;5113230;28;20225;-60
2022/06/17 05:55:57;;;;;;;4.65;4.25;;;;;;;35.23;34.86;99732.50;5113036;28;20715;-60
2022/06/17 05:58:25;;;;;;;4.50;4.20;;;;;;;35.44;34.71;99739.72;5112979;28;20199;-60
2022/06/17 06:00:52;;;;;;;4.50;4.20;;;;;;;35.74;34.19;99723.31;5112887;28;20229;-61
2022/06/17 06:03:20;;;;;;;6.65;5.30;;;;;;;35.60;34.56;99725.91;5112913;28;20316;-59
2022/06/17 06:05:49;;;;;;;5.55;5.00;;;;;;;35.07;36.08;99724.75;5113086;28;20195;-60
2022/06/17 06:08:16;;;;;;;11.23;5.47;;;;;;;35.23;36.12;99726.28;5113006;28;20203;-61
2022/06/17 06:10:43;;;;;;;15.52;5.50;;;;;;;35.17;35.74;99730.63;5112761;28;20293;-61
2022/06/17 06:13:16;;;;;;;7.63;5.18;;;;;;;34.97;36.28;99713.47;5112848;28;20255;-60
2022/06/17 06:15:46;;;;;;;6.15;4.50;;;;;;;35.08;36.55;99717.47;5112067;28;20733;-61
2022/06/17 06:18:15;;;;;;;5.82;4.68;;;;;;;35.07;36.46;99721.22;5112740;28;20629;-61
2022/06/17 06:20:43;;;;;;;5.70;5.22;;;;;;;34.14;38.09;99727.56;5112611;28;20317;-60
2022/06/17 06:23:12;;;;;;;6.15;5.65;;;;;;;33.02;40.56;99713.41;5112329;28;20574;-60
2022/06/17 06:25:39;;;;;;;8.52;5.50;;;;;;;32.58;42.27;99707.06;5111246;28;20602;-60
2022/06/17 06:28:10;;;;;;;5.93;5.45;;;;;;;33.12;41.83;99711.28;5111490;28;20194;-60
2022/06/17 06:30:37;;;;;;;5.53;4.90;;;;;;;33.58;40.45;99711.13;5111477;28;20206;-61
2022/06/17 06:33:05;;;;;;;7.90;5.13;;;;;;;33.56;40.15;99697.03;5108603;28;20227;-61
2022/06/17 06:35:35;;;;;;;7.55;5.85;;;;;;;33.26;40.80;99698.91;5111555;28;20191;-61
2022/06/17 06:38:03;;;;;;;7.30;5.10;;;;;;;33.17;41.48;99703.50;5111605;28;20209;-59
2022/06/17 06:40:32;;;;;;;5.53;4.97;;;;;;;33.01;41.29;99687.53;5111901;28;20217;-60
2022/06/17 06:42:59;;;;;;;8.30;4.85;;;;;;;32.91;41.65;99691.50;5112342;28;20271;-59
2022/06/17 06:45:29;;;;;;;5.63;5.22;;;;;;;32.98;41.77;99692.44;5112272;28;20195;-59
2022/06/17 06:47:58;;;;;;;7.53;5.60;;;;;;;32.84;41.85;99694.13;5112255;28;20191;-61
2022/06/17 06:50:30;;;;;;;5.10;4.65;;;;;;;32.54;42.39;99677.03;5111689;28;20285;-60
2022/06/17 06:52:57;;;;;;;11.63;5.43;;;;;;;32.32;42.92;99673.34;5112099;27;20190;-60
2022/06/17 06:55:24;;;;;;;6.03;5.63;;;;;;;32.04;44.47;99669.50;5112004;28;20234;-60
2022/06/17 06:57:54;;;;;;;8.82;5.70;;;;;;;31.93;44.41;99665.38;5112170;28;20199;-60
2022/06/17 07:00:25;;;;;;;7.28;5.70;;;;;;;31.79;45.28;99658.09;5111877;28;20191;-60
2022/06/17 07:02:52;;;;;;;6.00;5.40;;;;;;;31.73;45.44;99646.19;5111251;28;20191;-59
2022/06/17 07:05:19;;;;;;;7.30;5.70;;;;;;;31.65;45.53;99643.56;5111882;28;20217;-60
2022/06/17 07:07:46;;;;;;;7.60;5.68;;;;;;;31.33;46.07;99633.81;5111439;28;20195;-61
2022/06/17 07:10:16;;;;;;;6.93;5.93;;;;;;;31.24;46.71;99636.69;5111427;28;20198;-61
2022/06/17 07:12:43;;;;;;;6.93;5.38;;;;;;;31.86;45.08;99639.41;5111028;28;20191;-59
2022/06/17 07:15:15;;;;;;;4.45;4.05;;;;;;;32.18;42.78;99631.16;5110497;28;20195;-59
2022/06/17 07:17:54;;;;;;;3.55;3.35;;;;;;;31.63;43.07;99623.25;5110344;28;20205;-59
2022/06/17 07:20:21;;;;;;;7.38;4.03;;;;;;;31.31;44.14;99616.19;5110650;28;20217;-60
2022/06/17 07:22:48;;;;;;;11.20;3.97;;;;;;;31.57;43.54;99616.75;5110279;28;20195;-60
2022/06/17 07:25:15;;;;;;;5.70;4.50;;;;;;;31.34;44.62;99618.53;5110165;28;20198;-60
2022/06/17 07:27:42;;;;;;;4.18;3.75;;;;;;;31.96;43.38;99618.53;5110654;28;20201;-60
2022/06/17 07:30:15;;;;;;;4.43;4.03;;;;;;;32.20;41.13;99621.06;5111420;28;20757;-60
2022/06/17 07:32:42;;;;;;;5.05;4.15;;;;;;;32.51;40.60;99617.47;5111345;28;20191;-60
2022/06/17 07:35:10;;;;;;;9.45;4.22;;;;;;;32.87;40.19;99612.22;5111306;28;20277;-60
2022/06/17 07:40:21;;;;;;;7.20;4.05;;;;;;;33.00;39.90;99610.56;5111268;28;20208;-60
2022/06/17 07:42:48;;;;;;;4.90;4.40;;;;;;;33.17;38.94;99612.06;5110941;28;20219;-60
2022/06/17 07:45:19;;;;;;;4.45;4.15;;;;;;;33.19;38.95;99618.06;5111133;28;20202;-60
2022/06/17 07:47:48;;;;;;;7.15;4.32;;;;;;;33.62;38.13;99614.69;5111203;28;20216;-61
2022/06/17 07:50:18;;;;;;;4.25;3.83;;;;;;;33.26;38.13;99614.66;5110998;28;20199;-61
2022/06/17 07:52:46;;;;;;;8.25;4.85;;;;;;;33.49;38.31;99609.97;5111442;28;20214;-60
2022/06/17 07:55:13;;;;;;;7.20;4.18;;;;;;;33.24;38.61;99614.84;5110964;28;20219;-60
2022/06/17 07:57:40;;;;;;;8.43;4.30;;;;;;;33.56;38.70;99604.66;5111070;28;20195;-60
2022/06/17 08:00:09;;;;;;;5.13;4.72;;;;;;;34.23;37.47;99599.78;5110804;28;20194;-59
2022/06/17 08:02:37;;;;;;;6.20;4.28;;;;;;;33.83;37.26;99604.81;5110831;28;20218;-60
2022/06/17 08:05:07;;;;;;;8.18;4.65;;;;;;;33.89;37.51;99605.88;5110815;28;20195;-59
2022/06/17 08:07:34;;;;;;;6.63;4.68;;;;;;;33.81;38.06;99595.25;5110548;28;20209;-60
2022/06/17 08:10:00;;;;;;;5.25;4.53;;;;;;;33.75;38.03;99612.97;5110895;28;20648;-59
2022/06/17 08:12:27;;;;;;;6.80;4.35;;;;;;;34.31;37.42;99605.06;5110716;28;20194;-60
2022/06/17 08:14:56;;;;;;;6.38;4.20;;;;;;;35.25;35.92;99605.50;5110669;28;20592;-60
2022/06/17 08:17:24;;;;;;;4.38;4.18;;;;;;;35.39;34.44;99611.81;5110639;28;20683;-60
2022/06/17 08:19:56;;;;;;;5.35;4.68;;;;;;;35.76;34.29;99608.63;5110581;28;20190;-61
2022/06/17 08:22:24;;;;;;;4.53;4.15;;;;;;;36.37;33.39;99603.91;5110466;28;20317;-61
2022/06/17 08:24:51;;;;;;;5.05;4.38;;;;;;;36.58;33.14;99612.84;5110426;28;20199;-60
2022/06/17 08:27:18;;;;;;;6.70;4.63;;;;;;;35.77;32.73;99577.88;5110842;28;20212;-60
2022/06/17 08:29:45;;;;;;;4.68;4.22;;;;;;;35.66;33.91;99595.50;5110476;28;20195;-60
2022/06/17 08:34:58;;;;;;;5.55;4.18;;;;;;;35.97;33.18;99611.16;5110480;28;20197;-60
2022/06/17 08:37:26;;;;;;;7.07;5.07;;;;;;;35.51;33.10;99599.38;5110319;28;20198;-60
2022/06/17 08:39:53;;;;;;;4.80;4.40;;;;;;;35.16;33.75;99598.59;5099010;28;20226;-60
2022/06/17 08:42:38;;;;;;;9.32;4.75;;;;;;;34.79;36.20;99586.34;5108314;28;20333;-59
2022/06/17 08:45:16;;;;;;;5.07;4.78;;;;;;;33.25;37.75;99589.63;5109674;28;20285;-59
2022/06/17 08:48:00;;;;;;;5.22;4.82;;;;;;;32.75;38.69;99593.03;5110705;28;20277;-61
2022/06/17 08:50:41;;;;;;;4.93;4.57;;;;;;;32.44;39.48;99569.81;5110489;28;20655;-60
2022/06/17 08:53:35;;;;;;;7.75;5.05;;;;;;;32.49;41.68;99580.03;5110420;28;20655;-60
2022/06/17 08:56:07;;;;;;;6.90;4.63;;;;;;;32.52;40.61;99576.09;5099785;28;20647;-59
2022/06/17 08:58:54;;;;;;;7.18;5.30;;;;;;;32.59;43.01;99577.06;5110184;28;20190;-59
2022/06/17 09:01:33;;;;;;;5.40;5.00;;;;;;;32.53;40.46;99567.03;5110199;28;20782;-59
2022/06/17 09:04:18;;;;;;;5.32;4.93;;;;;;;32.11;41.20;99576.47;5110381;28;20208;-59
2022/06/17 09:07:00;;;;;;;6.03;5.50;;;;;;;31.92;40.40;99572.44;5110514;28;20226;-60
2022/06/17 09:09:42;;;;;;;7.90;7.40;;;;;;;31.86;41.25;99574.97;5110119;28;20194;-60
2022/06/17 09:12:17;;;;;;;5.13;4.72;;;;;;;31.83;40.72;99573.47;5106251;28;20203;-60
2022/06/17 09:14:55;;;;;;;5.53;4.80;;;;;;;32.20;40.74;99578.09;5109068;28;20190;-61
2022/06/17 09:17:31;;;;;;;6.20;5.25;;;;;;;32.07;40.79;99559.03;5107053;28;20194;-59
2022/06/17 09:20:03;;;;;;;6.43;5.80;;;;;;;32.57;41.32;99565.66;5106663;28;20195;-60
2022/06/17 09:22:38;;;;;;;6.47;5.82;;;;;;;32.74;41.11;99569.84;5108500;28;20217;-60
2022/06/17 09:25:08;;;;;;;6.88;5.80;;;;;;;32.92;40.11;99573.03;5108938;28;20728;-59
2022/06/17 09:27:37;;;;;;;6.30;5.60;;;;;;;32.95;41.07;99569.13;5108607;28;20449;-60
2022/06/17 09:30:11;;;;;;;6.60;5.25;;;;;;;32.85;39.71;99563.16;5112683;28;20198;-60
2022/06/17 09:32:43;;;;;;;6.40;6.00;;;;;;;32.53;40.41;99562.50;5110416;28;20193;-61
2022/06/17 09:35:22;;;;;;;6.20;5.70;;;;;;;32.35;41.66;99548.59;5112348;28;20197;-60
2022/06/17 09:37:54;;;;;;;6.45;5.88;;;;;;;32.34;41.10;99546.91;5112346;28;20317;-61
2022/06/17 09:40:27;;;;;;;6.40;5.97;;;;;;;31.69;41.07;99548.28;5112515;27;20197;-59
2022/06/17 09:43:02;;;;;;;6.75;6.18;;;;;;;31.68;42.94;99541.25;5109460;28;20751;-60
2022/06/17 09:45:35;;;;;;;7.13;6.32;;;;;;;31.13;43.28;99541.38;5112159;28;20209;-62
2022/06/17 09:48:09;;;;;;;6.38;5.90;;;;;;;31.49;43.74;99535.47;5112620;28;20574;-60
2022/06/17 09:50:42;;;;;;;6.00;5.57;;;;;;;32.00;41.21;99533.94;5109638;28;20280;-61
2022/06/17 09:53:16;;;;;;;6.25;5.68;;;;;;;32.15;40.40;99532.13;5112102;28;20202;-60
2022/06/17 09:55:49;;;;;;;6.70;6.03;;;;;;;32.35;40.87;99527.09;5111678;28;20612;-59
2022/06/17 09:58:23;;;;;;;5.95;5.55;;;;;;;32.40;40.62;99522.81;5109314;28;20191;-60
2022/06/17 10:00:53;;;;;;;6.90;6.30;;;;;;;32.17;40.85;99531.94;5111905;28;20194;-60
2022/06/17 10:03:24;;;;;;;6.40;5.90;;;;;;;31.79;41.17;99520.34;5111925;28;20215;-61
2022/06/17 10:05:59;;;;;;;6.47;5.82;;;;;;;31.93;41.29;99520.41;5111793;28;20229;-60
2022/06/17 10:08:37;;;;;;;7.05;5.93;;;;;;;31.59;41.51;99511.94;5111599;28;20289;-60
2022/06/17 10:11:12;;;;;;;7.07;6.38;;;;;;;31.61;42.39;99513.41;5110614;28;20664;-60
2022/06/17 10:13:48;;;;;;;6.78;6.35;;;;;;;31.53;43.23;99510.78;5109618;28;20190;-59
2022/06/17 10:19:22;;;;;;;6.40;6.00;;;;;;;31.40;42.48;99500.63;5110821;28;20197;-60
2022/06/17 10:22:01;;;;;;;7.20;6.10;;;;;;;31.22;43.39;99502.78;5110693;28;20218;-59
2022/06/17 10:24:53;;;;;;;7.13;6.43;;;;;;;31.18;44.02;99506.81;5111584;28;20194;-60
2022/06/17 10:27:32;;;;;;;9.85;6.80;;;;;;;31.14;43.41;99481.38;5109414;28;20594;-60
2022/06/17 10:30:05;;;;;;;17.52;6.75;;;;;;;31.21;43.96;99489.53;5109593;28;20273;-60
2022/06/17 10:32:35;;;;;;;7.93;7.25;;;;;;;31.09;44.27;99482.91;5111365;28;20191;-60
2022/06/17 10:35:05;;;;;;;8.43;6.43;;;;;;;31.16;44.41;99487.38;5111299;28;20194;-60
2022/06/17 10:37:36;;;;;;;6.45;5.95;;;;;;;31.22;43.58;99484.00;5110355;28;20191;-59
2022/06/17 10:40:08;;;;;;;6.97;6.47;;;;;;;31.03;44.64;99485.25;5110743;28;20201;-59
2022/06/17 10:42:35;;;;;;;7.25;6.53;;;;;;;30.97;45.48;99483.28;5108499;28;20210;-59
2022/06/17 10:45:03;;;;;;;6.65;6.25;;;;;;;30.84;44.78;99482.16;5111060;28;20197;-59
2022/06/17 10:47:40;;;;;;;8.02;7.43;;;;;;;30.61;45.16;99474.88;5111028;28;20198;-60
2022/06/17 10:50:18;;;;;;;6.88;6.38;;;;;;;30.47;45.07;99474.75;5110788;28;20201;-59
2022/06/17 10:52:50;;;;;;;8.25;7.45;;;;;;;30.36;45.61;99472.44;5109780;28;20314;-59
2022/06/17 10:55:24;;;;;;;7.20;6.53;;;;;;;30.22;46.71;99465.94;5106174;28;20230;-60
2022/06/17 10:58:12;;;;;;;10.35;6.50;;;;;;;30.23;47.10;99468.47;5109836;28;20680;-59
2022/06/17 11:00:45;;;;;;;7.40;6.93;;;;;;;30.31;46.64;99468.44;5107512;28;20257;-60
2022/06/17 11:03:18;;;;;;;9.60;7.25;;;;;;;30.59;46.94;99462.66;5110161;28;20695;-60
2022/06/17 11:05:55;;;;;;;11.13;6.82;;;;;;;30.81;45.72;99467.28;5110739;28;20223;-60
2022/06/17 11:08:24;;;;;;;7.28;6.78;;;;;;;30.68;45.43;99454.44;5108951;28;20604;-59
2022/06/17 11:10:57;;;;;;;9.57;7.03;;;;;;;30.76;45.02;99453.56;5109560;28;20187;-59
2022/06/17 11:13:25;;;;;;;7.40;6.80;;;;;;;30.72;45.05;99454.91;5110312;28;20281;-59
2022/06/17 11:15:56;;;;;;;7.35;6.80;;;;;;;30.56;45.62;99457.66;5109292;28;20312;-59
2022/06/17 11:18:26;;;;;;;11.10;7.13;;;;;;;30.78;46.66;99453.38;5108903;28;20203;-58
2022/06/17 11:20:57;;;;;;;12.55;7.85;;;;;;;31.00;46.16;99458.78;5108832;28;20191;-58
2022/06/17 11:23:27;;;;;;;9.52;8.07;;;;;;;30.99;44.11;99451.75;5108827;28;20291;-60
2022/06/17 11:26:12;;;;;;;8.10;7.40;;;;;;;31.00;44.99;99452.59;5107694;28;20194;-59
2022/06/17 11:28:41;;;;;;;9.65;8.77;;;;;;;31.12;44.96;99436.97;5109457;28;20227;-59
2022/06/17 11:31:14;;;;;;;8.40;7.68;;;;;;;31.26;44.91;99439.75;5108730;28;20618;-60
2022/06/17 11:33:57;;;;;;;8.02;7.57;;;;;;;31.16;44.63;99432.91;5109091;28;20197;-59
2022/06/17 11:36:27;;;;;;;8.20;7.57;;;;;;;31.22;43.62;99433.06;5109716;28;20561;-60
2022/06/17 11:38:54;;;;;;;10.38;8.48;;;;;;;31.30;44.43;99429.47;5109441;28;20222;-59
2022/06/17 11:41:27;;;;;;;11.32;10.20;;;;;;;31.02;43.50;99421.94;5109356;28;20277;-60
2022/06/17 11:43:55;;;;;;;8.57;7.97;;;;;;;31.09;45.17;99418.56;5108993;28;20211;-59
2022/06/17 11:46:25;;;;;;;10.73;9.95;;;;;;;30.99;43.53;99414.22;5108417;28;20206;-59
2022/06/17 11:48:57;;;;;;;8.80;7.93;;;;;;;30.86;43.48;99416.66;5108604;28;20190;-59
2022/06/17 11:51:30;;;;;;;8.45;7.85;;;;;;;30.96;43.49;99411.91;5108302;28;20202;-59
2022/06/17 11:53:59;;;;;;;9.35;8.40;;;;;;;30.84;43.82;99413.31;5108873;28;20723;-60
2022/06/17 11:56:36;;;;;;;9.18;8.35;;;;;;;30.67;43.70;99411.75;5109195;28;20317;-61
2022/06/17 11:59:09;;;;;;;9.85;8.98;;;;;;;30.81;43.79;99405.66;5108998;28;20195;-61